Latest Weather Observations for Cape Ferguson

IDQ60801

Issued at 4:32 pm EST Saturday 13 April 2024 (issued every 10 minutes, with the page automatically refreshed every 10 minutes)

About weather observations | Map of weather stations | Latest weather observations for QLD | Other Formats
Station Details ID: 032182 Name: CAPE FERGUSON NTC AWS Lat: -19.28 Lon: 147.06 Height: 0.0 m
Data from the previous 72 hours. | See also: Recent months for locations in Queensland
Date/Time
EST
Temp
°C
App
Temp
°C
Dew
Point
°C
Rel
Hum
%
Delta-T
°C
Wind Press
QNH
hPa
Press
MSL
hPa
Rain since
9am
mm
Dir  Spd
km/h
Gust
km/h
Spd
kts
Gust
kts
13/04:30pm 27.4 - - - - ESE 35 43 19 23 1015.2 1015.2 -
13/04:00pm 27.0 - - - - ESE 30 39 16 21 1014.8 1014.8 -
13/03:30pm 26.9 - - - - E 33 43 18 23 1014.7 1014.7 -
13/03:00pm 26.8 - - - - ESE 32 41 17 22 1014.7 1014.7 -
13/02:30pm 26.7 - - - - E 39 46 21 25 1015.3 1015.3 -
13/02:00pm 26.0 - - - - E 24 32 13 17 1015.1 1015.1 -
13/01:30pm 26.6 - - - - E 32 41 17 22 1015.8 1015.8 -
13/01:23pm 26.6 - - - - ENE 33 43 18 23 1015.7 1015.7 -
13/01:08pm 24.4 - - - - ENE 37 44 20 24 1015.8 1015.8 -
13/01:00pm 26.8 - - - - E 35 43 19 23 1015.9 1015.9 -
13/12:30pm 26.8 - - - - E 37 48 20 26 1015.9 1015.9 -
13/12:00pm 26.8 - - - - ESE 26 32 14 17 1015.9 1015.9 -
13/11:30am 26.9 - - - - ESE 22 33 12 18 1016.3 1016.3 -
13/11:00am 26.5 - - - - SE 24 30 13 16 1016.6 1016.6 -
13/10:30am 25.8 - - - - SE 19 22 10 12 1016.9 1016.9 -
13/10:00am 25.2 - - - - SE 20 28 11 15 1017.0 1017.0 -
13/09:30am 24.9 - - - - SE 20 24 11 13 1016.9 1016.9 -
13/09:00am 24.4 - - - - SE 24 32 13 17 1016.7 1016.7 -
13/08:30am 24.1 - - - - SE 30 35 16 19 1016.3 1016.3 -
13/08:00am 23.9 - - - - SSE 28 35 15 19 1016.3 1016.3 -
13/07:30am 23.8 - - - - SSE 26 33 14 18 1016.1 1016.1 -
13/07:00am 23.9 - - - - SSE 28 37 15 20 1015.6 1015.6 -
13/06:30am 24.2 - - - - SSE 22 28 12 15 1015.1 1015.1 -
13/06:00am 24.3 - - - - SSE 22 30 12 16 1014.9 1014.9 -
13/05:30am 24.4 - - - - SSE 22 28 12 15 1014.8 1014.8 -
13/05:00am 24.5 - - - - S 22 28 12 15 1014.7 1014.7 -
13/04:30am 24.4 - - - - SSE 19 28 10 15 1014.7 1014.7 -
13/04:00am 24.1 - - - - SSE 17 24 9 13 1014.5 1014.5 -
13/03:30am 24.5 - - - - SSE 19 24 10 13 1014.6 1014.6 -
13/03:00am 24.3 - - - - S 17 22 9 12 1014.9 1014.9 -
13/02:30am 24.3 - - - - S 20 28 11 15 1014.9 1014.9 -
13/02:00am 24.3 - - - - S 19 24 10 13 1015.0 1015.0 -
13/01:30am 24.4 - - - - S 17 22 9 12 1015.0 1015.0 -
13/01:00am 24.6 - - - - S 19 22 10 12 1015.1 1015.1 -
13/12:30am 24.8 - - - - SSE 17 24 9 13 1015.6 1015.6 -
13/12:00am 25.0 - - - - SSE 19 26 10 14 1015.8 1015.8 -
 
Date/Time
EST
Temp
°C
App
Temp
°C
Dew
Point
°C
Rel
Hum
%
Delta-T
°C
Wind Press
QNH
hPa
Press
MSL
hPa
Rain since
9am
mm
Dir  Spd
km/h
Gust
km/h
Spd
kts
Gust
kts
12/11:30pm 24.9 - - - - S 15 19 8 10 1015.9 1015.9 -
12/11:00pm 25.1 - - - - S 17 22 9 12 1016.0 1016.0 -
12/10:30pm 25.3 - - - - SSE 15 20 8 11 1015.9 1015.9 -
12/10:00pm 25.4 - - - - S 20 26 11 14 1015.9 1015.9 -
12/09:30pm 25.9 - - - - SSE 20 24 11 13 1016.1 1016.1 -
12/09:00pm 26.2 - - - - SE 24 30 13 16 1016.0 1016.0 -
12/08:30pm 26.7 - - - - SE 26 32 14 17 1015.8 1015.8 -
12/08:00pm 26.6 - - - - ESE 30 35 16 19 1015.4 1015.4 -
12/07:30pm 26.9 - - - - ESE 30 37 16 20 1015.2 1015.2 -
12/07:00pm 26.8 - - - - ESE 30 41 16 22 1014.7 1014.7 -
12/06:30pm 26.9 - - - - ESE 32 39 17 21 1014.2 1014.2 -
12/06:00pm 26.9 - - - - E 32 41 17 22 1013.9 1013.9 -
12/05:30pm 27.0 - - - - E 33 41 18 22 1013.8 1013.8 -
12/05:00pm 27.0 - - - - E 32 39 17 21 1013.5 1013.5 -
12/04:30pm 26.9 - - - - ESE 30 35 16 19 1013.3 1013.3 -
12/04:00pm 27.0 - - - - ESE 28 33 15 18 1012.9 1012.9 -
12/03:30pm 26.7 - - - - E 24 30 13 16 1012.8 1012.8 -
12/03:00pm 26.8 - - - - E 30 35 16 19 1013.0 1013.0 -
12/02:30pm 26.7 - - - - E 30 35 16 19 1013.0 1013.0 -
12/02:00pm 27.0 - - - - E 28 32 15 17 1013.1 1013.1 -
12/01:30pm 26.9 - - - - E 24 28 13 15 1013.4 1013.4 -
12/01:00pm 26.7 - - - - E 20 24 11 13 1013.6 1013.6 -
12/12:30pm 26.6 - - - - ESE 15 19 8 10 1014.0 1014.0 -
12/12:00pm 26.3 - - - - SE 13 19 7 10 1014.6 1014.6 -
12/11:30am 25.9 - - - - SE 13 19 7 10 1015.1 1015.1 -
12/11:00am 25.4 - - - - SE 15 17 8 9 1015.6 1015.6 -
12/10:30am 25.0 - - - - S 13 20 7 11 1015.8 1015.8 -
12/10:00am 24.7 - - - - SSE 13 17 7 9 1015.9 1015.9 -
12/09:30am 24.4 - - - - SSE 15 20 8 11 1015.8 1015.8 -
12/09:00am 24.2 - - - - S 13 17 7 9 1015.6 1015.6 -
12/08:30am 23.7 - - - - S 11 19 6 10 1015.3 1015.3 -
12/08:00am 23.1 - - - - SSW 9 13 5 7 1014.9 1014.9 -
12/07:30am 23.0 - - - - SW 9 15 5 8 1014.6 1014.6 -
12/07:00am 22.0 - - - - WSW 9 15 5 8 1014.4 1014.4 -
12/06:30am 22.0 - - - - W 9 15 5 8 1014.0 1014.0 -
12/06:00am 22.7 - - - - SW 9 15 5 8 1013.8 1013.8 -
12/05:30am 21.6 - - - - WNW 6 11 3 6 1013.5 1013.5 -
12/05:00am 22.2 - - - - W 6 15 3 8 1013.3 1013.3 -
12/04:30am 22.4 - - - - SW 7 15 4 8 1013.3 1013.3 -
12/04:00am 22.1 - - - - WSW 7 19 4 10 1013.3 1013.3 -
12/03:30am 23.3 - - - - S 19 22 10 12 1013.4 1013.4 -
12/03:00am 23.6 - - - - SSW 13 20 7 11 1013.6 1013.6 -
12/02:30am 23.0 - - - - SW 7 13 4 7 1013.8 1013.8 -
12/02:00am 22.8 - - - - SSW 13 20 7 11 1014.0 1014.0 -
12/01:30am 23.9 - - - - S 20 24 11 13 1014.3 1014.3 -
12/01:00am 24.3 - - - - S 19 22 10 12 1014.4 1014.4 -
12/12:30am 25.4 - - - - SSE 17 20 9 11 1014.7 1014.7 -
12/12:00am 25.6 - - - - S 9 17 5 9 1015.1 1015.1 -
 
Date/Time
EST
Temp
°C
App
Temp
°C
Dew
Point
°C
Rel
Hum
%
Delta-T
°C
Wind Press
QNH
hPa
Press
MSL
hPa
Rain since
9am
mm
Dir  Spd
km/h
Gust
km/h
Spd
kts
Gust
kts
11/11:30pm 25.8 - - - - SSE 13 17 7 9 1015.1 1015.1 -
11/11:00pm 24.2 - - - - WNW 7 11 4 6 1015.1 1015.1 -
11/10:30pm 23.6 - - - - WNW 9 11 5 6 1015.1 1015.1 -
11/10:00pm 26.6 - - - - E 17 22 9 12 1015.2 1015.2 -
11/09:30pm 26.4 - - - - E 13 20 7 11 1015.3 1015.3 -
11/09:00pm 26.4 - - - - E 15 19 8 10 1015.3 1015.3 -
11/08:30pm 26.2 - - - - E 15 20 8 11 1015.2 1015.2 -
11/08:00pm 26.3 - - - - E 13 19 7 10 1014.8 1014.8 -
11/07:30pm 26.3 - - - - E 13 17 7 9 1014.4 1014.4 -
11/07:00pm 26.2 - - - - E 11 15 6 8 1014.0 1014.0 -
11/06:30pm 26.0 - - - - E 13 19 7 10 1013.7 1013.7 -
11/06:00pm 26.1 - - - - ENE 11 17 6 9 1013.4 1013.4 -
11/05:30pm 26.0 - - - - E 13 17 7 9 1013.4 1013.4 -
11/05:00pm 26.1 - - - - ENE 11 17 6 9 1013.2 1013.2 -
11/04:30pm 26.1 - - - - ENE 13 20 7 11 1012.8 1012.8 -
11/04:00pm 26.0 - - - - ENE 13 17 7 9 1012.7 1012.7 -
11/03:30pm 26.0 - - - - ENE 15 19 8 10 1012.6 1012.6 -
11/03:00pm 26.1 - - - - ENE 13 19 7 10 1012.4 1012.4 -
11/02:30pm 26.0 - - - - ENE 15 20 8 11 1012.6 1012.6 -
11/02:00pm 25.9 - - - - E 15 22 8 12 1012.9 1012.9 -
11/01:30pm 25.7 - - - - E 17 22 9 12 1013.3 1013.3 -
11/01:00pm 25.7 - - - - E 19 24 10 13 1013.8 1013.8 -
11/12:30pm 25.4 - - - - ESE 13 19 7 10 1014.1 1014.1 -
11/12:00pm 25.3 - - - - ESE 15 22 8 12 1014.7 1014.7 -
11/11:30am 25.2 - - - - SE 19 24 10 13 1015.1 1015.1 -
11/11:00am 24.5 - - - - SSE 20 26 11 14 1015.5 1015.5 -
11/10:30am 24.0 - - - - SSE 22 28 12 15 1016.0 1016.0 -
11/10:00am 23.9 - - - - SSE 20 28 11 15 1016.0 1016.0 -
11/09:30am 23.9 - - - - SSE 20 28 11 15 1015.8 1015.8 -
11/09:00am 23.9 - - - - SSE 24 30 13 16 1015.5 1015.5 -
11/08:30am 23.9 - - - - SSE 24 33 13 18 1015.1 1015.1 -
11/08:00am 24.0 - - - - SE 28 35 15 19 1014.8 1014.8 -
11/07:30am 24.3 - - - - SE 26 33 14 18 1014.4 1014.4 -
11/07:00am 24.3 - - - - SE 24 30 13 16 1014.0 1014.0 -
11/06:30am 24.1 - - - - SSE 19 24 10 13 1013.5 1013.5 -
11/06:00am 24.1 - - - - SSE 19 24 10 13 1013.2 1013.2 -
11/05:30am 24.2 - - - - SSE 19 24 10 13 1012.8 1012.8 -
11/05:00am 24.3 - - - - SSE 20 24 11 13 1012.6 1012.6 -
11/04:30am 24.4 - - - - SSE 17 20 9 11 1012.4 1012.4 -
11/04:00am 24.3 - - - - SW 6 11 3 6 1012.4 1012.4 -
11/03:30am 24.6 - - - - S 15 19 8 10 1012.4 1012.4 -
11/03:00am 24.7 - - - - S 17 20 9 11 1012.4 1012.4 -
11/02:30am 24.8 - - - - W 11 17 6 9 1012.7 1012.7 -
11/02:00am 24.8 - - - - W 7 11 4 6 1012.9 1012.9 -
11/01:30am 24.9 - - - - W 11 13 6 7 1013.0 1013.0 -
11/01:00am 24.3 - - - - WNW 11 13 6 7 1013.1 1013.1 -
11/12:30am 24.8 - - - - W 7 9 4 5 1013.3 1013.3 -
11/12:00am 24.6 - - - - NW 7 9 4 5 1013.6 1013.6 -
 
Date/Time
EST
Temp
°C
App
Temp
°C
Dew
Point
°C
Rel
Hum
%
Delta-T
°C
Wind Press
QNH
hPa
Press
MSL
hPa
Rain since
9am
mm
Dir  Spd
km/h
Gust
km/h
Spd
kts
Gust
kts
10/11:30pm 26.9 - - - - E 9 13 5 7 1013.8 1013.8 -
10/11:00pm 26.9 - - - - ENE 11 15 6 8 1014.0 1014.0 -
10/10:30pm - - - - - E 13 17 7 9 1014.1 1014.1 -
10/10:00pm 27.1 - - - - E 13 17 7 9 1014.2 1014.2 -
10/09:30pm 27.1 - - - - ENE 9 15 5 8 1014.3 1014.3 -
10/09:00pm 27.1 - - - - ENE 9 13 5 7 1014.1 1014.1 -
10/08:30pm 27.1 - - - - ENE 11 15 6 8 1013.8 1013.8 -
10/08:00pm 27.1 - - - - NE 4 13 2 7 1013.3 1013.3 -
10/07:30pm 27.1 - - - - ENE 9 17 5 9 1012.8 1012.8 -
10/07:00pm 27.1 - - - - ENE 13 17 7 9 1012.3 1012.3 -
10/06:30pm 27.1 - - - - ENE 13 20 7 11 1011.9 1011.9 -
10/06:00pm 27.1 - - - - ENE 19 22 10 12 1011.6 1011.6 -
10/05:30pm 27.1 - - - - ENE 20 24 11 13 1011.3 1011.3 -
10/05:00pm 27.2 - - - - ENE 20 24 11 13 1011.1 1011.1 -

Other formats

Comma delimited format used in spreadsheet applications
http://www.bom.gov.au/fwo/IDQ60801/IDQ60801.94297.axf

JavaScript Object Notation format (JSON) in row-major order
http://www.bom.gov.au/fwo/IDQ60801/IDQ60801.94297.json

Data quality

Most of these data are generated automatically and are frequently updated. Quality checks on data are not normally performed. It is possible for incorrect values to appear. Refer to information at About Latest Weather Observations and please check the disclaimer before using these data.